createdAt,value
2023-05-14T00:00:44.499Z,1574.00
2023-05-14T00:01:44.492Z,1580.00
2023-05-14T00:02:44.549Z,1554.00
2023-05-14T00:03:44.538Z,1536.00
2023-05-14T00:04:44.577Z,1528.00
2023-05-14T00:05:44.470Z,1525.00
2023-05-14T00:06:44.461Z,1523.00
2023-05-14T00:07:44.432Z,1505.00
2023-05-14T00:08:44.426Z,1486.00
2023-05-14T00:09:44.424Z,1474.00
2023-05-14T00:10:44.428Z,1455.00
2023-05-14T00:11:44.413Z,1460.00
2023-05-14T00:12:44.417Z,1446.00
2023-05-14T00:13:44.416Z,1454.00
2023-05-14T00:14:44.408Z,1456.00
2023-05-14T00:15:44.431Z,1466.00
2023-05-14T00:16:44.409Z,1451.00
2023-05-14T00:17:44.400Z,1457.00
2023-05-14T00:18:44.442Z,1446.00
2023-05-14T00:19:44.349Z,1450.00
2023-05-14T00:20:44.475Z,1455.00
2023-05-14T00:21:44.329Z,1463.00
2023-05-14T00:22:44.336Z,1468.00
2023-05-14T00:23:44.326Z,1470.00
2023-05-14T00:24:44.304Z,1465.00
2023-05-14T00:25:44.322Z,1449.00
2023-05-14T00:26:44.294Z,1478.00
2023-05-14T00:27:44.299Z,1477.00
2023-05-14T00:28:44.317Z,1477.00
2023-05-14T00:29:44.346Z,1475.00
2023-05-14T00:30:44.369Z,1486.00
2023-05-14T00:31:44.463Z,1493.00
2023-05-14T00:32:44.476Z,1471.00
2023-05-14T00:33:44.487Z,1468.00
2023-05-14T00:34:44.530Z,1455.00
2023-05-14T00:35:44.562Z,1437.00
2023-05-14T00:36:44.564Z,1440.00
2023-05-14T00:37:44.610Z,1428.00
2023-05-14T00:38:44.633Z,1425.00
2023-05-14T00:39:44.655Z,1407.00
2023-05-14T00:40:44.698Z,1395.00
2023-05-14T00:41:44.700Z,1388.00
2023-05-14T00:42:44.721Z,1395.00
2023-05-14T00:43:44.770Z,1385.00
2023-05-14T00:44:44.815Z,1372.00
2023-05-14T00:45:44.829Z,1390.00
2023-05-14T00:46:44.883Z,1383.00
2023-05-14T00:47:44.917Z,1395.00
2023-05-14T00:48:44.930Z,1384.00
2023-05-14T00:49:44.946Z,1397.00
2023-05-14T00:50:44.973Z,1397.00
2023-05-14T00:51:45.003Z,1398.00
2023-05-14T00:52:45.033Z,1399.00
2023-05-14T00:53:45.041Z,1410.00
2023-05-14T00:54:45.086Z,1402.00
2023-05-14T00:55:45.075Z,1419.00
2023-05-14T00:56:45.109Z,1397.00
2023-05-14T00:57:45.140Z,1388.00
2023-05-14T00:58:45.193Z,1378.00
2023-05-14T00:59:45.246Z,1386.00
2023-05-14T01:00:45.303Z,1373.00
2023-05-14T01:01:45.271Z,1366.00
2023-05-14T01:02:45.366Z,1361.00
2023-05-14T01:03:45.481Z,1350.00
2023-05-14T01:04:45.357Z,1354.00
2023-05-14T01:05:45.403Z,1330.00
2023-05-14T01:06:45.438Z,1344.00
2023-05-14T01:07:45.477Z,1340.00
2023-05-14T01:08:45.533Z,1355.00
2023-05-14T01:09:45.542Z,1340.00
2023-05-14T01:10:45.574Z,1348.00
2023-05-14T01:11:45.623Z,1342.00
2023-05-14T01:12:45.642Z,1324.00
2023-05-14T01:13:45.707Z,1326.00
2023-05-14T01:14:45.734Z,1342.00
2023-05-14T01:15:45.739Z,1344.00
2023-05-14T01:16:45.844Z,1362.00
2023-05-14T01:17:45.821Z,1355.00
2023-05-14T01:18:45.889Z,1344.00
2023-05-14T01:19:45.873Z,1343.00
2023-05-14T01:20:45.911Z,1355.00
2023-05-14T01:21:45.934Z,1357.00
2023-05-14T01:22:45.985Z,1350.00
2023-05-14T01:23:46.019Z,1357.00
2023-05-14T01:24:46.057Z,1350.00
2023-05-14T01:25:46.088Z,1360.00
2023-05-14T01:26:46.120Z,1361.00
2023-05-14T01:27:46.153Z,1357.00
2023-05-14T01:28:46.203Z,1365.00
2023-05-14T01:29:46.239Z,1362.00
2023-05-14T01:30:46.255Z,1360.00
2023-05-14T01:31:46.336Z,1373.00
2023-05-14T01:32:46.406Z,1373.00
2023-05-14T01:33:46.381Z,1369.00
2023-05-14T01:34:46.401Z,1374.00
2023-05-14T01:35:46.460Z,1376.00
2023-05-14T01:36:46.536Z,1367.00
2023-05-14T01:37:46.533Z,1376.00
2023-05-14T01:38:46.530Z,1368.00
2023-05-14T01:39:46.593Z,1372.00
2023-05-14T01:40:46.692Z,1367.00
2023-05-14T01:41:46.636Z,1361.00
2023-05-14T01:42:46.670Z,1364.00
2023-05-14T01:43:46.716Z,1360.00
2023-05-14T01:44:46.743Z,1388.00
2023-05-14T01:45:46.883Z,1389.00
2023-05-14T01:46:46.820Z,1384.00
2023-05-14T01:47:46.905Z,1383.00
2023-05-14T01:48:46.876Z,1393.00
2023-05-14T01:49:46.916Z,1365.00
2023-05-14T01:50:46.922Z,1381.00
2023-05-14T01:51:46.956Z,1376.00
2023-05-14T01:52:47.009Z,1379.00
2023-05-14T01:53:47.037Z,1370.00
2023-05-14T01:54:47.101Z,1384.00
2023-05-14T01:55:47.139Z,1378.00
2023-05-14T01:56:47.195Z,1377.00
2023-05-14T01:57:47.287Z,1356.00
2023-05-14T01:58:47.266Z,1360.00
2023-05-14T01:59:47.356Z,1357.00
2023-05-14T02:00:47.362Z,1353.00
2023-05-14T02:01:47.420Z,1350.00
2023-05-14T02:02:47.433Z,1348.00
2023-05-14T02:03:47.512Z,1332.00
2023-05-14T02:04:47.475Z,1316.00
2023-05-14T02:05:47.527Z,1323.00
2023-05-14T02:06:47.545Z,1337.00
2023-05-14T02:07:47.585Z,1315.00
2023-05-14T02:08:47.592Z,1315.00
2023-05-14T02:09:47.638Z,1324.00
2023-05-14T02:10:47.695Z,1323.00
2023-05-14T02:11:47.706Z,1316.00
2023-05-14T02:12:47.741Z,1323.00
2023-05-14T02:13:47.773Z,1329.00
2023-05-14T02:14:47.824Z,1322.00
2023-05-14T02:15:47.872Z,1304.00
2023-05-14T02:16:47.902Z,1312.00
2023-05-14T02:17:47.980Z,1309.00
2023-05-14T02:18:48.029Z,1302.00
2023-05-14T02:19:47.950Z,1304.00
2023-05-14T02:20:47.987Z,1301.00
2023-05-14T02:21:47.998Z,1321.00
2023-05-14T02:22:48.048Z,1310.00
2023-05-14T02:23:48.094Z,1316.00
2023-05-14T02:24:48.124Z,1311.00
2023-05-14T02:25:48.148Z,1301.00
2023-05-14T02:26:48.197Z,1300.00
2023-05-14T02:27:48.230Z,1299.00
2023-05-14T02:28:48.298Z,1299.00
2023-05-14T02:29:48.335Z,1293.00
2023-05-14T02:30:48.369Z,1281.00
2023-05-14T02:31:48.428Z,1297.00
2023-05-14T02:32:48.535Z,1298.00
2023-05-14T02:33:48.478Z,1283.00
2023-05-14T02:34:48.559Z,1272.00
2023-05-14T02:35:48.552Z,1279.00
2023-05-14T02:36:48.556Z,1278.00
2023-05-14T02:37:48.612Z,1273.00
2023-05-14T02:38:48.638Z,1289.00
2023-05-14T02:39:48.673Z,1284.00
2023-05-14T02:40:48.707Z,1274.00
2023-05-14T02:41:48.767Z,1276.00
2023-05-14T02:42:48.802Z,1273.00
2023-05-14T02:43:48.827Z,1268.00
2023-05-14T02:44:48.855Z,1266.00
2023-05-14T02:45:48.907Z,1274.00
2023-05-14T02:46:48.996Z,1242.00
2023-05-14T02:47:49.009Z,1255.00
2023-05-14T02:48:49.037Z,1261.00
2023-05-14T02:49:49.076Z,1250.00
2023-05-14T02:50:49.109Z,1254.00
2023-05-14T02:51:49.134Z,1242.00
2023-05-14T02:52:49.187Z,1242.00
2023-05-14T02:53:49.211Z,1250.00
2023-05-14T02:54:49.235Z,1239.00
2023-05-14T02:55:49.259Z,1234.00
2023-05-14T02:56:49.289Z,1239.00
2023-05-14T02:57:49.334Z,1236.00
2023-05-14T02:58:49.331Z,1238.00
2023-05-14T02:59:49.366Z,1256.00
2023-05-14T03:00:49.459Z,1246.00
2023-05-14T03:01:49.449Z,1245.00
2023-05-14T03:02:49.628Z,1256.00
2023-05-14T03:03:49.500Z,1234.00
2023-05-14T03:04:49.517Z,1214.00
2023-05-14T03:05:49.528Z,1236.00
2023-05-14T03:06:49.579Z,1236.00
2023-05-14T03:07:49.604Z,1235.00
2023-05-14T03:08:49.637Z,1221.00
2023-05-14T03:09:49.692Z,1229.00
2023-05-14T03:10:49.743Z,1232.00
2023-05-14T03:11:49.772Z,1226.00
2023-05-14T03:12:49.814Z,1222.00
2023-05-14T03:13:49.869Z,1226.00
2023-05-14T03:14:49.887Z,1226.00
2023-05-14T03:15:49.940Z,1231.00
2023-05-14T03:16:50.010Z,1228.00
2023-05-14T03:17:50.043Z,1240.00
2023-05-14T03:18:50.070Z,1233.00
2023-05-14T03:19:50.028Z,1226.00
2023-05-14T03:20:50.088Z,1237.00
2023-05-14T03:21:50.126Z,1239.00
2023-05-14T03:22:50.172Z,1229.00
2023-05-14T03:23:50.211Z,1226.00
2023-05-14T03:24:50.222Z,1226.00
2023-05-14T03:25:50.237Z,1227.00
2023-05-14T03:26:50.289Z,1232.00
2023-05-14T03:27:50.284Z,1225.00
2023-05-14T03:28:50.317Z,1221.00
2023-05-14T03:29:50.340Z,1230.00
2023-05-14T03:30:50.391Z,1213.00
2023-05-14T03:31:50.394Z,1214.00
2023-05-14T03:32:50.521Z,1223.00
2023-05-14T03:33:50.471Z,1233.00
2023-05-14T03:34:50.508Z,1231.00
2023-05-14T03:35:50.567Z,1229.00
2023-05-14T03:36:50.615Z,1215.00
2023-05-14T03:37:50.634Z,1216.00
2023-05-14T03:38:50.681Z,1214.00
2023-05-14T03:39:50.736Z,1231.00
2023-05-14T03:40:50.769Z,1224.00
2023-05-14T03:41:50.847Z,1223.00
2023-05-14T03:42:50.843Z,1224.00
2023-05-14T03:43:50.864Z,1220.00
2023-05-14T03:44:50.893Z,1211.00
2023-05-14T03:45:50.945Z,1223.00
2023-05-14T03:46:50.998Z,1219.00
2023-05-14T03:47:51.089Z,1197.00
2023-05-14T03:48:51.101Z,1200.00
2023-05-14T03:49:51.085Z,1203.00
2023-05-14T03:50:51.129Z,1206.00
2023-05-14T03:51:51.163Z,1201.00
2023-05-14T03:52:51.185Z,1187.00
2023-05-14T03:53:51.214Z,1204.00
2023-05-14T03:54:51.266Z,1186.00
2023-05-14T03:55:51.365Z,1177.00
2023-05-14T03:56:51.320Z,1177.00
2023-05-14T03:57:51.362Z,1183.00
2023-05-14T03:58:51.378Z,1192.00
2023-05-14T03:59:51.394Z,1171.00
2023-05-14T04:00:51.434Z,1173.00
2023-05-14T04:01:51.454Z,1163.00
2023-05-14T04:02:51.693Z,1176.00
2023-05-14T04:03:51.717Z,1166.00
2023-05-14T04:04:51.703Z,1173.00
2023-05-14T04:05:51.620Z,1155.00
2023-05-14T04:06:51.653Z,1176.00
2023-05-14T04:07:51.681Z,1156.00
2023-05-14T04:08:51.701Z,1164.00
2023-05-14T04:09:51.734Z,1164.00
2023-05-14T04:10:51.788Z,1164.00
2023-05-14T04:11:51.804Z,1177.00
2023-05-14T04:12:51.852Z,1162.00
2023-05-14T04:13:51.899Z,1158.00
2023-05-14T04:14:51.931Z,1165.00
2023-05-14T04:15:52.012Z,1156.00
2023-05-14T04:16:52.017Z,1155.00
2023-05-14T04:17:52.128Z,1157.00
2023-05-14T04:18:52.166Z,1152.00
2023-05-14T04:19:52.120Z,1158.00
2023-05-14T04:20:52.122Z,1145.00
2023-05-14T04:21:52.175Z,1141.00
2023-05-14T04:22:52.213Z,1142.00
2023-05-14T04:23:52.276Z,1125.00
2023-05-14T04:24:52.309Z,1124.00
2023-05-14T04:25:52.368Z,1122.00
2023-05-14T04:26:52.405Z,1117.00
2023-05-14T04:27:52.462Z,1097.00
2023-05-14T04:28:52.495Z,1105.00
2023-05-14T04:29:52.539Z,1109.00
2023-05-14T04:30:52.577Z,1115.00
2023-05-14T04:31:52.691Z,1093.00
2023-05-14T04:32:52.825Z,1093.00
2023-05-14T04:33:52.727Z,1101.00
2023-05-14T04:34:52.763Z,1100.00
2023-05-14T04:35:52.809Z,1096.00
2023-05-14T04:36:52.858Z,1093.00
2023-05-14T04:37:52.880Z,1091.00
2023-05-14T04:38:52.917Z,1078.00
2023-05-14T04:39:52.948Z,1084.00
2023-05-14T04:40:52.973Z,1072.00
2023-05-14T04:41:53.023Z,1078.00
2023-05-14T04:42:53.044Z,1082.00
2023-05-14T04:43:53.104Z,1086.00
2023-05-14T04:44:53.132Z,1080.00
2023-05-14T04:45:53.329Z,1072.00
2023-05-14T04:46:53.216Z,1075.00
2023-05-14T04:47:53.291Z,1062.00
2023-05-14T04:48:53.291Z,1061.00
2023-05-14T04:49:53.333Z,1055.00
2023-05-14T04:50:53.397Z,1051.00
2023-05-14T04:51:53.453Z,1049.00
2023-05-14T04:52:53.487Z,1045.00
2023-05-14T04:53:53.541Z,1038.00
2023-05-14T04:54:53.578Z,1051.00
2023-05-14T04:55:53.637Z,1042.00
2023-05-14T04:56:53.668Z,1056.00
2023-05-14T04:57:53.731Z,1052.00
2023-05-14T04:58:53.758Z,1036.00
2023-05-14T04:59:53.843Z,1048.00
2023-05-14T05:00:53.898Z,1028.00
2023-05-14T05:01:53.923Z,1023.00
2023-05-14T05:02:53.984Z,1036.00
2023-05-14T05:03:53.998Z,1021.00
2023-05-14T05:04:54.001Z,1029.00
2023-05-14T05:05:54.103Z,1007.00
2023-05-14T05:06:54.083Z,1041.00
2023-05-14T05:07:54.138Z,1028.00
2023-05-14T05:08:54.217Z,1017.00
2023-05-14T05:09:54.221Z,1016.00
2023-05-14T05:10:54.278Z,1025.00
2023-05-14T05:11:54.296Z,1011.00
2023-05-14T05:12:54.336Z,1009.00
2023-05-14T05:13:54.358Z,1019.00
2023-05-14T05:14:54.410Z,1000.00
2023-05-14T05:15:54.480Z,1016.00
2023-05-14T05:16:54.479Z,996.00
2023-05-14T05:17:54.633Z,1006.00
2023-05-14T05:18:54.586Z,1001.00
2023-05-14T05:19:54.640Z,988.00
2023-05-14T05:20:54.671Z,1007.00
2023-05-14T05:21:54.681Z,991.00
2023-05-14T05:22:54.731Z,989.00
2023-05-14T05:23:54.783Z,984.00
2023-05-14T05:24:54.840Z,993.00
2023-05-14T05:25:54.889Z,985.00
2023-05-14T05:26:54.919Z,981.00
2023-05-14T05:27:54.936Z,989.00
2023-05-14T05:28:54.951Z,973.00
2023-05-14T05:29:54.980Z,990.00
2023-05-14T05:30:55.010Z,980.00
2023-05-14T05:31:55.162Z,970.00
2023-05-14T05:32:55.110Z,965.00
2023-05-14T05:33:55.136Z,957.00
2023-05-14T05:34:55.161Z,940.00
2023-05-14T05:35:55.219Z,942.00
2023-05-14T05:36:55.260Z,926.00
2023-05-14T05:37:55.320Z,933.00
2023-05-14T05:38:55.372Z,906.00
2023-05-14T05:39:55.425Z,919.00
2023-05-14T05:40:55.508Z,937.00
2023-05-14T05:41:55.483Z,907.00
2023-05-14T05:42:55.532Z,917.00
2023-05-14T05:43:55.569Z,915.00
2023-05-14T05:44:55.613Z,902.00
2023-05-14T05:45:55.652Z,888.00
2023-05-14T05:46:55.838Z,884.00
2023-05-14T05:47:55.771Z,898.00
2023-05-14T05:48:55.776Z,905.00
2023-05-14T05:49:55.794Z,912.00
2023-05-14T05:50:55.849Z,895.00
2023-05-14T05:51:55.890Z,893.00
2023-05-14T05:52:55.902Z,894.00
2023-05-14T05:53:55.984Z,890.00
2023-05-14T05:54:55.993Z,913.00
2023-05-14T05:55:56.028Z,911.00
2023-05-14T05:56:56.049Z,886.00
2023-05-14T05:57:56.059Z,902.00
2023-05-14T05:58:56.094Z,898.00
2023-05-14T05:59:56.143Z,878.00
2023-05-14T06:00:56.170Z,874.00
2023-05-14T06:01:56.280Z,880.00
2023-05-14T06:02:56.321Z,888.00
2023-05-14T06:03:56.287Z,873.00
2023-05-14T06:04:56.379Z,883.00
2023-05-14T06:05:56.420Z,882.00
2023-05-14T06:06:56.533Z,872.00
2023-05-14T06:07:56.438Z,869.00
2023-05-14T06:08:56.589Z,874.00
2023-05-14T06:09:56.632Z,856.00
2023-05-14T06:10:56.640Z,849.00
2023-05-14T06:11:56.655Z,855.00
2023-05-14T06:12:56.719Z,837.00
2023-05-14T06:13:56.669Z,845.00
2023-05-14T06:14:56.788Z,822.00
2023-05-14T06:15:56.734Z,831.00
2023-05-14T06:16:56.933Z,839.00
2023-05-14T06:17:56.917Z,828.00
2023-05-14T06:18:56.870Z,805.00
2023-05-14T06:19:56.960Z,800.00
2023-05-14T06:20:56.884Z,794.00
2023-05-14T06:21:57.028Z,804.00
2023-05-14T06:22:56.999Z,797.00
2023-05-14T06:23:57.060Z,766.00
2023-05-14T06:24:57.152Z,777.00
2023-05-14T06:25:57.356Z,775.00
2023-05-14T06:26:57.148Z,776.00
2023-05-14T06:27:57.204Z,799.00
2023-05-14T06:28:57.363Z,781.00
2023-05-14T06:29:57.481Z,811.00
2023-05-14T06:30:57.458Z,784.00
2023-05-14T06:31:57.533Z,749.00
2023-05-14T06:32:57.422Z,748.00
2023-05-14T06:33:57.583Z,752.00
2023-05-14T06:34:57.540Z,751.00
2023-05-14T06:35:57.487Z,739.00
2023-05-14T06:36:57.625Z,751.00
2023-05-14T06:37:57.572Z,743.00
2023-05-14T06:38:57.581Z,728.00
2023-05-14T06:39:58.002Z,737.00
2023-05-14T06:40:57.804Z,731.00
2023-05-14T06:41:57.738Z,720.00
2023-05-14T06:42:57.743Z,718.00
2023-05-14T06:43:57.771Z,707.00
2023-05-14T06:44:57.830Z,699.00
2023-05-14T06:45:57.949Z,693.00
2023-05-14T06:46:57.909Z,688.00
2023-05-14T06:47:58.094Z,673.00
2023-05-14T06:48:59.534Z,679.00
2023-05-14T06:49:57.994Z,682.00
2023-05-14T06:50:58.182Z,685.00
2023-05-14T06:51:58.154Z,670.00
2023-05-14T06:52:58.138Z,662.00
2023-05-14T06:53:58.296Z,661.00
2023-05-14T06:54:58.236Z,657.00
2023-05-14T06:55:58.287Z,655.00
2023-05-14T06:56:58.342Z,657.00
2023-05-14T06:57:58.295Z,647.00
2023-05-14T06:58:58.326Z,654.00
2023-05-14T06:59:58.430Z,646.00
2023-05-14T07:00:58.539Z,644.00
2023-05-14T07:01:58.751Z,631.00
2023-05-14T07:02:58.495Z,640.00
2023-05-14T07:03:58.606Z,632.00
2023-05-14T07:04:58.564Z,636.00
2023-05-14T07:05:58.599Z,634.00
2023-05-14T07:06:58.622Z,629.00
2023-05-14T07:07:58.675Z,623.00
2023-05-14T07:08:58.711Z,621.00
2023-05-14T07:09:58.732Z,632.00
2023-05-14T07:10:58.931Z,622.00
2023-05-14T07:11:58.803Z,617.00
2023-05-14T07:12:58.854Z,637.00
2023-05-14T07:13:58.851Z,626.00
2023-05-14T07:14:58.878Z,620.00
2023-05-14T07:15:58.921Z,627.00
2023-05-14T07:16:59.015Z,621.00
2023-05-14T07:17:59.017Z,618.00
2023-05-14T07:18:59.067Z,620.00
2023-05-14T07:19:59.037Z,624.00
2023-05-14T07:20:59.221Z,621.00
2023-05-14T07:21:59.188Z,624.00
2023-05-14T07:22:59.115Z,608.00
2023-05-14T07:23:59.128Z,605.00
2023-05-14T07:24:59.156Z,599.00
2023-05-14T07:25:59.166Z,597.00
2023-05-14T07:26:59.293Z,587.00
2023-05-14T07:27:59.220Z,586.00
2023-05-14T07:28:59.264Z,584.00
2023-05-14T07:29:59.290Z,575.00
2023-05-14T07:30:59.397Z,573.00
2023-05-14T07:31:59.342Z,575.00
2023-05-14T07:32:59.395Z,577.00
2023-05-14T07:33:59.504Z,574.00
2023-05-14T07:34:59.375Z,570.00
2023-05-14T07:35:59.393Z,566.00
2023-05-14T07:36:59.416Z,557.00
2023-05-14T07:37:59.457Z,567.00
2023-05-14T07:38:59.490Z,561.00
2023-05-14T07:39:59.508Z,555.00
2023-05-14T07:40:59.471Z,559.00
2023-05-14T07:41:59.586Z,559.00
2023-05-14T07:42:59.448Z,557.00
2023-05-14T07:43:59.482Z,556.00
2023-05-14T07:44:59.506Z,551.00
2023-05-14T07:45:59.563Z,558.00
2023-05-14T07:46:59.732Z,563.00
2023-05-14T07:47:59.906Z,565.00
2023-05-14T07:48:59.670Z,551.00
2023-05-14T07:49:59.831Z,561.00
2023-05-14T07:50:59.719Z,555.00
2023-05-14T07:51:59.790Z,552.00
2023-05-14T07:52:59.765Z,555.00
2023-05-14T07:53:59.918Z,546.00
2023-05-14T07:54:59.827Z,547.00
2023-05-14T07:55:59.882Z,565.00
2023-05-14T07:56:59.904Z,575.00
2023-05-14T07:57:59.947Z,575.00
2023-05-14T07:58:59.939Z,574.00
2023-05-14T08:00:00.010Z,574.00
2023-05-14T08:01:00.033Z,571.00
2023-05-14T08:02:00.195Z,563.00
2023-05-14T08:03:00.385Z,570.00
2023-05-14T08:04:00.332Z,579.00
2023-05-14T08:05:00.215Z,576.00
2023-05-14T08:06:00.165Z,587.00
2023-05-14T08:07:00.175Z,584.00
2023-05-14T08:08:00.157Z,590.00
2023-05-14T08:09:00.257Z,599.00
2023-05-14T08:10:00.348Z,603.00
2023-05-14T08:11:00.445Z,604.00
2023-05-14T08:12:00.270Z,585.00
2023-05-14T08:13:00.244Z,568.00
2023-05-14T08:14:00.415Z,569.00
2023-05-14T08:15:00.304Z,578.00
2023-05-14T08:16:00.317Z,599.00
2023-05-14T08:17:00.536Z,603.00
2023-05-14T08:18:00.435Z,590.00
2023-05-14T08:19:00.428Z,590.00
2023-05-14T08:20:00.390Z,590.00
2023-05-14T08:21:02.197Z,581.00
2023-05-14T08:22:00.323Z,591.00
2023-05-14T08:23:00.327Z,599.00
2023-05-14T08:24:00.313Z,628.00
2023-05-14T08:25:00.375Z,632.00
2023-05-14T08:26:00.359Z,655.00
2023-05-14T08:27:00.367Z,656.00
2023-05-14T08:28:00.397Z,685.00
2023-05-14T08:29:00.305Z,682.00
2023-05-14T08:30:00.336Z,664.00
2023-05-14T08:31:00.458Z,682.00
2023-05-14T08:32:03.857Z,690.00
2023-05-14T08:33:01.383Z,692.00
2023-05-14T08:34:00.345Z,696.00
2023-05-14T08:35:00.298Z,706.00
2023-05-14T08:36:00.327Z,726.00
2023-05-14T08:37:00.443Z,752.00
2023-05-14T08:38:00.290Z,746.00
2023-05-14T08:39:00.301Z,745.00
2023-05-14T08:40:00.303Z,720.00
2023-05-14T08:41:00.224Z,730.00
2023-05-14T08:42:00.260Z,748.00
2023-05-14T08:43:00.296Z,751.00
2023-05-14T08:44:00.365Z,727.00
2023-05-14T08:45:00.468Z,731.00
2023-05-14T08:46:00.408Z,748.00
2023-05-14T08:47:00.501Z,725.00
2023-05-14T08:48:00.661Z,740.00
2023-05-14T08:49:00.523Z,746.00
2023-05-14T08:50:00.611Z,747.00
2023-05-14T08:51:00.567Z,767.00
2023-05-14T08:52:00.655Z,751.00
2023-05-14T08:53:00.664Z,748.00
2023-05-14T08:54:00.725Z,731.00
2023-05-14T08:55:00.688Z,719.00
2023-05-14T08:56:00.767Z,721.00
2023-05-14T08:57:00.801Z,730.00
2023-05-14T08:58:00.788Z,723.00
2023-05-14T08:59:00.836Z,702.00
2023-05-14T09:00:00.883Z,716.00
2023-05-14T09:01:00.928Z,721.00
2023-05-14T09:02:00.992Z,737.00
2023-05-14T09:03:00.995Z,722.00
2023-05-14T09:04:01.109Z,714.00
2023-05-14T09:05:01.007Z,724.00
2023-05-14T09:06:00.994Z,711.00
2023-05-14T09:07:01.024Z,709.00
2023-05-14T09:08:01.049Z,705.00
2023-05-14T09:09:01.042Z,704.00
2023-05-14T09:10:01.064Z,704.00
2023-05-14T09:11:01.054Z,714.00
2023-05-14T09:12:01.087Z,711.00
2023-05-14T09:13:01.206Z,724.00
2023-05-14T09:14:01.154Z,713.00
2023-05-14T09:15:01.182Z,741.00
2023-05-14T09:16:01.282Z,764.00
2023-05-14T09:17:01.248Z,779.00
2023-05-14T09:18:01.315Z,790.00
2023-05-14T09:19:01.321Z,788.00
2023-05-14T09:20:01.379Z,807.00
2023-05-14T09:21:01.340Z,791.00
2023-05-14T09:22:01.361Z,786.00
2023-05-14T09:23:01.393Z,798.00
2023-05-14T09:24:01.407Z,787.00
2023-05-14T09:25:01.501Z,798.00
2023-05-14T09:26:01.496Z,789.00
2023-05-14T09:27:01.529Z,794.00
2023-05-14T09:28:01.519Z,792.00
2023-05-14T09:29:01.550Z,803.00
2023-05-14T09:30:01.552Z,788.00
2023-05-14T09:31:01.596Z,785.00
2023-05-14T09:32:01.690Z,780.00
2023-05-14T09:33:01.737Z,769.00
2023-05-14T09:34:01.679Z,775.00
2023-05-14T09:35:01.691Z,768.00
2023-05-14T09:36:01.707Z,771.00
2023-05-14T09:37:01.754Z,760.00
2023-05-14T09:38:01.727Z,759.00
2023-05-14T09:39:01.766Z,732.00
2023-05-14T09:40:01.760Z,727.00
2023-05-14T09:41:01.845Z,711.00
2023-05-14T09:42:01.833Z,687.00
2023-05-14T09:43:01.908Z,694.00
2023-05-14T09:44:02.408Z,703.00
2023-05-14T09:45:01.994Z,706.00
2023-05-14T09:46:01.961Z,717.00
2023-05-14T09:47:02.038Z,712.00
2023-05-14T09:48:02.116Z,718.00
2023-05-14T09:49:02.063Z,722.00
2023-05-14T09:50:02.067Z,709.00
2023-05-14T09:51:03.344Z,706.00
2023-05-14T09:52:02.235Z,697.00
2023-05-14T09:53:02.248Z,696.00
2023-05-14T09:54:02.234Z,699.00
2023-05-14T09:55:02.269Z,666.00
2023-05-14T09:56:02.284Z,686.00
2023-05-14T09:57:02.295Z,690.00
2023-05-14T09:58:02.302Z,705.00
2023-05-14T09:59:02.310Z,697.00
2023-05-14T10:00:02.320Z,702.00
2023-05-14T10:01:02.326Z,705.00
2023-05-14T10:02:02.338Z,679.00
2023-05-14T10:03:02.431Z,675.00
2023-05-14T10:04:02.400Z,665.00
2023-05-14T10:05:02.411Z,679.00
2023-05-14T10:06:02.420Z,658.00
2023-05-14T10:07:02.439Z,676.00
2023-05-14T10:08:02.443Z,684.00
2023-05-14T10:09:02.480Z,672.00
2023-05-14T10:10:02.533Z,681.00
2023-05-14T10:11:02.586Z,662.00
2023-05-14T10:12:02.654Z,653.00
2023-05-14T10:13:02.631Z,654.00
2023-05-14T10:14:02.653Z,646.00
2023-05-14T10:15:02.651Z,648.00
2023-05-14T10:16:02.698Z,652.00
2023-05-14T10:17:02.724Z,650.00
2023-05-14T10:18:02.720Z,649.00
2023-05-14T10:19:02.700Z,648.00
2023-05-14T10:20:02.709Z,651.00
2023-05-14T10:21:02.723Z,648.00
2023-05-14T10:22:02.761Z,646.00
2023-05-14T10:23:02.801Z,636.00
2023-05-14T10:24:02.834Z,636.00
2023-05-14T10:25:02.884Z,636.00
2023-05-14T10:26:02.929Z,634.00
2023-05-14T10:27:02.913Z,628.00
2023-05-14T10:28:02.917Z,629.00
2023-05-14T10:29:03.059Z,632.00
2023-05-14T10:30:03.023Z,628.00
2023-05-14T10:31:03.072Z,628.00
2023-05-14T10:32:03.009Z,627.00
2023-05-14T10:33:03.130Z,625.00
2023-05-14T10:34:03.046Z,623.00
2023-05-14T10:35:03.159Z,618.00
2023-05-14T10:36:03.171Z,625.00
2023-05-14T10:37:03.151Z,625.00
2023-05-14T10:38:03.217Z,622.00
2023-05-14T10:39:03.229Z,605.00
2023-05-14T10:40:03.250Z,613.00
2023-05-14T10:41:03.242Z,608.00
2023-05-14T10:42:03.287Z,618.00
2023-05-14T10:43:03.336Z,618.00
2023-05-14T10:44:03.363Z,613.00
2023-05-14T10:45:03.497Z,613.00
2023-05-14T10:46:03.572Z,618.00
2023-05-14T10:47:03.767Z,620.00
2023-05-14T10:48:03.642Z,626.00
2023-05-14T10:49:03.632Z,616.00
2023-05-14T10:50:03.649Z,621.00
2023-05-14T10:51:03.696Z,607.00
2023-05-14T10:52:03.654Z,601.00
2023-05-14T10:53:03.697Z,605.00
2023-05-14T10:54:03.721Z,612.00
2023-05-14T10:55:04.045Z,624.00
2023-05-14T10:56:03.737Z,618.00
2023-05-14T10:57:03.749Z,612.00
2023-05-14T10:58:03.750Z,622.00
2023-05-14T10:59:03.743Z,612.00
2023-05-14T11:00:03.752Z,617.00
2023-05-14T11:01:03.783Z,611.00
2023-05-14T11:02:03.849Z,613.00
2023-05-14T11:03:03.864Z,610.00
2023-05-14T11:04:03.835Z,613.00
2023-05-14T11:05:03.864Z,607.00
2023-05-14T11:06:03.820Z,604.00
2023-05-14T11:07:03.873Z,597.00
2023-05-14T11:08:03.951Z,602.00
2023-05-14T11:09:03.946Z,606.00
2023-05-14T11:10:03.997Z,607.00
2023-05-14T11:11:04.065Z,606.00
2023-05-14T11:12:04.100Z,605.00
2023-05-14T11:13:04.140Z,617.00
2023-05-14T11:14:04.195Z,607.00
2023-05-14T11:15:04.220Z,607.00
2023-05-14T11:16:11.981Z,614.00
2023-05-14T11:17:05.228Z,614.00
2023-05-14T11:18:04.247Z,604.00
2023-05-14T11:19:04.270Z,604.00
2023-05-14T11:20:04.205Z,619.00
2023-05-14T11:21:04.235Z,615.00
2023-05-14T11:22:04.179Z,614.00
2023-05-14T11:23:04.179Z,607.00
2023-05-14T11:24:04.172Z,610.00
2023-05-14T11:25:04.155Z,613.00
2023-05-14T11:26:04.219Z,606.00
2023-05-14T11:27:04.159Z,610.00
2023-05-14T11:28:04.150Z,611.00
2023-05-14T11:29:04.160Z,612.00
2023-05-14T11:30:04.141Z,606.00
2023-05-14T11:31:04.137Z,604.00
2023-05-14T11:32:04.303Z,602.00
2023-05-14T11:33:04.242Z,603.00
2023-05-14T11:34:04.237Z,604.00
2023-05-14T11:35:04.279Z,605.00
2023-05-14T11:36:04.319Z,606.00
2023-05-14T11:37:04.366Z,597.00
2023-05-14T11:38:04.428Z,606.00
2023-05-14T11:39:04.403Z,610.00
2023-05-14T11:40:04.441Z,611.00
2023-05-14T11:41:04.457Z,605.00
2023-05-14T11:42:04.485Z,600.00
2023-05-14T11:43:04.508Z,596.00
2023-05-14T11:44:04.584Z,608.00
2023-05-14T11:45:04.620Z,595.00
2023-05-14T11:46:04.648Z,601.00
2023-05-14T11:47:04.720Z,604.00
2023-05-14T11:48:04.802Z,595.00
2023-05-14T11:49:04.830Z,598.00
2023-05-14T11:50:04.957Z,600.00
2023-05-14T11:51:04.855Z,598.00
2023-05-14T11:52:04.882Z,602.00
2023-05-14T11:53:04.917Z,600.00
2023-05-14T11:54:04.956Z,601.00
2023-05-14T11:55:04.991Z,581.00
2023-05-14T11:56:06.082Z,578.00
2023-05-14T11:57:05.243Z,600.00
2023-05-14T11:58:05.260Z,586.00
2023-05-14T11:59:05.310Z,586.00
2023-05-14T12:00:05.339Z,583.00
2023-05-14T12:01:05.350Z,576.00
2023-05-14T12:02:05.433Z,582.00
2023-05-14T12:04:05.535Z,585.00
2023-05-14T12:05:05.489Z,581.00
2023-05-14T12:06:05.547Z,573.00
2023-05-14T12:07:05.565Z,574.00
2023-05-14T12:08:05.599Z,564.00
2023-05-14T12:09:05.638Z,565.00
2023-05-14T12:10:05.665Z,586.00
2023-05-14T12:11:05.675Z,571.00
2023-05-14T12:12:05.724Z,561.00
2023-05-14T12:13:05.774Z,558.00
2023-05-14T12:14:05.775Z,570.00
2023-05-14T12:15:05.845Z,572.00
2023-05-14T12:16:05.920Z,565.00
2023-05-14T12:17:05.943Z,566.00
2023-05-14T12:18:16.904Z,568.00
2023-05-14T12:19:06.979Z,568.00
2023-05-14T12:20:05.919Z,571.00